sensor_id;sensor_type;location;lat;lon;timestamp;P1;durP1;ratioP1;P2;durP2;ratioP2
23476;SDS011;11911;50.768;13.150;2022-07-26T04:02:20;9.83;;;8.60;;
23476;SDS011;11911;50.768;13.150;2022-07-26T04:04:46;8.80;;;7.83;;
23476;SDS011;11911;50.768;13.150;2022-07-26T04:07:11;20.87;;;8.77;;
23476;SDS011;11911;50.768;13.150;2022-07-26T04:09:37;12.97;;;8.80;;
23476;SDS011;11911;50.768;13.150;2022-07-26T04:12:02;10.10;;;8.57;;
23476;SDS011;11911;50.768;13.150;2022-07-26T04:14:28;9.17;;;8.17;;
23476;SDS011;11911;50.768;13.150;2022-07-26T04:16:53;10.83;;;8.40;;
23476;SDS011;11911;50.768;13.150;2022-07-26T04:19:19;10.70;;;8.80;;
23476;SDS011;11911;50.768;13.150;2022-07-26T04:26:55;9.37;;;8.40;;
23476;SDS011;11911;50.768;13.150;2022-07-26T04:29:20;11.47;;;8.30;;
23476;SDS011;11911;50.768;13.150;2022-07-26T04:34:21;10.73;;;7.73;;
23476;SDS011;11911;50.768;13.150;2022-07-26T04:36:47;12.03;;;8.13;;
23476;SDS011;11911;50.768;13.150;2022-07-26T04:39:12;10.97;;;8.57;;
23476;SDS011;11911;50.768;13.150;2022-07-26T04:44:13;11.40;;;8.37;;
23476;SDS011;11911;50.768;13.150;2022-07-26T04:46:38;15.13;;;7.97;;
23476;SDS011;11911;50.768;13.150;2022-07-26T04:49:04;10.77;;;7.57;;
23476;SDS011;11911;50.768;13.150;2022-07-26T04:54:05;9.37;;;8.47;;
23476;SDS011;11911;50.768;13.150;2022-07-26T04:56:30;16.80;;;8.50;;
23476;SDS011;11911;50.768;13.150;2022-07-26T04:58:56;12.80;;;7.93;;
23476;SDS011;11911;50.768;13.150;2022-07-26T05:03:56;9.93;;;8.30;;
23476;SDS011;11911;50.768;13.150;2022-07-26T05:06:22;8.40;;;7.43;;
23476;SDS011;11911;50.768;13.150;2022-07-26T05:08:47;10.83;;;6.90;;
23476;SDS011;11911;50.768;13.150;2022-07-26T05:13:48;11.30;;;7.37;;
23476;SDS011;11911;50.768;13.150;2022-07-26T05:16:14;15.23;;;6.10;;
23476;SDS011;11911;50.768;13.150;2022-07-26T05:18:40;10.00;;;6.23;;
23476;SDS011;11911;50.768;13.150;2022-07-26T05:21:05;8.43;;;5.47;;
23476;SDS011;11911;50.768;13.150;2022-07-26T05:23:31;9.70;;;5.97;;
23476;SDS011;11911;50.768;13.150;2022-07-26T05:25:56;6.53;;;5.93;;
23476;SDS011;11911;50.768;13.150;2022-07-26T05:28:21;8.00;;;6.33;;
23476;SDS011;11911;50.768;13.150;2022-07-26T05:30:47;10.93;;;6.33;;
23476;SDS011;11911;50.768;13.150;2022-07-26T05:33:13;8.90;;;5.90;;
23476;SDS011;11911;50.768;13.150;2022-07-26T05:35:38;8.30;;;5.87;;
23476;SDS011;11911;50.768;13.150;2022-07-26T05:38:04;12.27;;;6.20;;
23476;SDS011;11911;50.768;13.150;2022-07-26T05:40:29;7.20;;;6.50;;
23476;SDS011;11911;50.768;13.150;2022-07-26T05:42:55;16.27;;;6.90;;
23476;SDS011;11911;50.768;13.150;2022-07-26T05:45:21;10.37;;;6.90;;
23476;SDS011;11911;50.768;13.150;2022-07-26T05:47:50;12.57;;;7.27;;
23476;SDS011;11911;50.768;13.150;2022-07-26T05:50:16;8.50;;;5.33;;
23476;SDS011;11911;50.768;13.150;2022-07-26T05:52:42;11.10;;;6.00;;
23476;SDS011;11911;50.768;13.150;2022-07-26T05:55:07;7.90;;;4.97;;
23476;SDS011;11911;50.768;13.150;2022-07-26T05:57:33;7.23;;;5.40;;
23476;SDS011;11911;50.768;13.150;2022-07-26T05:59:59;6.50;;;4.90;;
23476;SDS011;11911;50.768;13.150;2022-07-26T06:02:24;6.27;;;3.70;;
23476;SDS011;11911;50.768;13.150;2022-07-26T06:04:50;7.73;;;4.43;;
23476;SDS011;11911;50.768;13.150;2022-07-26T06:07:15;10.83;;;4.00;;
23476;SDS011;11911;50.768;13.150;2022-07-26T06:09:41;5.93;;;4.13;;
23476;SDS011;11911;50.768;13.150;2022-07-26T06:12:07;5.63;;;3.60;;
23476;SDS011;11911;50.768;13.150;2022-07-26T06:14:32;5.50;;;3.70;;
23476;SDS011;11911;50.768;13.150;2022-07-26T06:16:58;8.33;;;3.60;;
23476;SDS011;11911;50.768;13.150;2022-07-26T06:19:23;5.23;;;3.70;;
23476;SDS011;11911;50.768;13.150;2022-07-26T06:21:49;7.23;;;3.37;;
23476;SDS011;11911;50.768;13.150;2022-07-26T06:24:14;15.57;;;3.33;;
23476;SDS011;11911;50.768;13.150;2022-07-26T06:26:40;8.30;;;3.23;;
23476;SDS011;11911;50.768;13.150;2022-07-26T06:29:06;7.17;;;3.23;;
23476;SDS011;11911;50.768;13.150;2022-07-26T06:31:31;6.20;;;2.80;;
23476;SDS011;11911;50.768;13.150;2022-07-26T06:33:57;5.90;;;3.17;;
23476;SDS011;11911;50.768;13.150;2022-07-26T06:36:23;18.33;;;3.50;;
23476;SDS011;11911;50.768;13.150;2022-07-26T06:38:48;10.80;;;2.97;;
23476;SDS011;11911;50.768;13.150;2022-07-26T06:41:14;5.77;;;2.00;;
23476;SDS011;11911;50.768;13.150;2022-07-26T06:43:39;7.97;;;2.63;;
23476;SDS011;11911;50.768;13.150;2022-07-26T06:46:05;19.50;;;2.90;;
23476;SDS011;11911;50.768;13.150;2022-07-26T06:48:30;11.20;;;2.70;;
23476;SDS011;11911;50.768;13.150;2022-07-26T06:50:56;6.20;;;2.87;;
23476;SDS011;11911;50.768;13.150;2022-07-26T06:53:21;4.90;;;2.60;;
23476;SDS011;11911;50.768;13.150;2022-07-26T06:55:47;6.50;;;2.80;;
23476;SDS011;11911;50.768;13.150;2022-07-26T06:58:12;5.10;;;2.70;;
23476;SDS011;11911;50.768;13.150;2022-07-26T07:00:37;8.03;;;2.80;;
23476;SDS011;11911;50.768;13.150;2022-07-26T07:03:03;5.20;;;2.47;;
23476;SDS011;11911;50.768;13.150;2022-07-26T07:05:28;9.40;;;2.37;;
23476;SDS011;11911;50.768;13.150;2022-07-26T07:07:54;6.30;;;2.43;;
23476;SDS011;11911;50.768;13.150;2022-07-26T07:10:20;3.73;;;2.20;;
23476;SDS011;11911;50.768;13.150;2022-07-26T07:12:45;6.70;;;2.53;;
23476;SDS011;11911;50.768;13.150;2022-07-26T07:15:11;6.60;;;2.33;;
23476;SDS011;11911;50.768;13.150;2022-07-26T07:17:36;4.50;;;2.10;;
23476;SDS011;11911;50.768;13.150;2022-07-26T07:20:02;4.27;;;1.90;;
23476;SDS011;11911;50.768;13.150;2022-07-26T07:22:29;7.40;;;2.00;;
23476;SDS011;11911;50.768;13.150;2022-07-26T07:24:55;10.57;;;2.47;;
23476;SDS011;11911;50.768;13.150;2022-07-26T07:27:20;6.47;;;1.80;;
23476;SDS011;11911;50.768;13.150;2022-07-26T07:29:45;6.90;;;1.90;;
23476;SDS011;11911;50.768;13.150;2022-07-26T07:32:11;8.00;;;1.87;;
23476;SDS011;11911;50.768;13.150;2022-07-26T07:34:37;7.63;;;1.83;;
23476;SDS011;11911;50.768;13.150;2022-07-26T07:37:02;17.23;;;2.57;;
23476;SDS011;11911;50.768;13.150;2022-07-26T07:39:28;4.20;;;2.17;;
23476;SDS011;11911;50.768;13.150;2022-07-26T07:41:54;3.47;;;1.37;;
23476;SDS011;11911;50.768;13.150;2022-07-26T07:44:20;2.90;;;1.67;;
23476;SDS011;11911;50.768;13.150;2022-07-26T07:46:45;7.53;;;2.10;;
23476;SDS011;11911;50.768;13.150;2022-07-26T07:49:11;8.20;;;1.50;;
23476;SDS011;11911;50.768;13.150;2022-07-26T07:51:36;6.10;;;2.03;;
23476;SDS011;11911;50.768;13.150;2022-07-26T07:54:02;4.63;;;1.67;;
23476;SDS011;11911;50.768;13.150;2022-07-26T07:56:28;4.70;;;2.00;;
23476;SDS011;11911;50.768;13.150;2022-07-26T07:58:54;5.67;;;1.30;;
23476;SDS011;11911;50.768;13.150;2022-07-26T08:01:19;4.10;;;1.90;;
23476;SDS011;11911;50.768;13.150;2022-07-26T08:03:45;4.10;;;1.60;;
23476;SDS011;11911;50.768;13.150;2022-07-26T08:06:10;11.53;;;1.63;;
23476;SDS011;11911;50.768;13.150;2022-07-26T08:08:36;11.93;;;1.80;;
23476;SDS011;11911;50.768;13.150;2022-07-26T08:11:02;7.90;;;1.70;;
23476;SDS011;11911;50.768;13.150;2022-07-26T08:13:29;8.07;;;1.17;;
23476;SDS011;11911;50.768;13.150;2022-07-26T08:15:54;5.33;;;1.60;;
23476;SDS011;11911;50.768;13.150;2022-07-26T08:18:21;6.83;;;1.60;;
23476;SDS011;11911;50.768;13.150;2022-07-26T08:20:47;3.77;;;1.40;;
23476;SDS011;11911;50.768;13.150;2022-07-26T08:23:13;8.00;;;1.67;;
23476;SDS011;11911;50.768;13.150;2022-07-26T08:25:38;3.93;;;1.40;;
23476;SDS011;11911;50.768;13.150;2022-07-26T08:28:04;8.73;;;1.43;;
23476;SDS011;11911;50.768;13.150;2022-07-26T08:30:30;2.93;;;1.27;;
23476;SDS011;11911;50.768;13.150;2022-07-26T08:32:56;4.37;;;1.60;;
23476;SDS011;11911;50.768;13.150;2022-07-26T08:35:21;9.00;;;1.80;;
23476;SDS011;11911;50.768;13.150;2022-07-26T08:37:47;3.90;;;1.30;;
23476;SDS011;11911;50.768;13.150;2022-07-26T08:40:13;4.50;;;1.30;;
23476;SDS011;11911;50.768;13.150;2022-07-26T08:42:39;3.40;;;1.47;;
23476;SDS011;11911;50.768;13.150;2022-07-26T08:45:04;3.00;;;1.53;;
23476;SDS011;11911;50.768;13.150;2022-07-26T08:47:30;3.10;;;1.40;;
23476;SDS011;11911;50.768;13.150;2022-07-26T08:49:57;3.93;;;1.50;;
23476;SDS011;11911;50.768;13.150;2022-07-26T08:52:22;3.57;;;1.33;;
23476;SDS011;11911;50.768;13.150;2022-07-26T08:54:49;6.97;;;1.70;;
23476;SDS011;11911;50.768;13.150;2022-07-26T08:57:15;6.47;;;1.40;;
23476;SDS011;11911;50.768;13.150;2022-07-26T08:59:41;3.87;;;1.80;;
23476;SDS011;11911;50.768;13.150;2022-07-26T09:02:08;6.20;;;1.63;;
23476;SDS011;11911;50.768;13.150;2022-07-26T09:04:37;9.37;;;1.70;;
23476;SDS011;11911;50.768;13.150;2022-07-26T09:07:07;9.37;;;2.00;;
23476;SDS011;11911;50.768;13.150;2022-07-26T09:09:36;3.30;;;1.20;;
23476;SDS011;11911;50.768;13.150;2022-07-26T09:12:22;4.40;;;1.63;;
23476;SDS011;11911;50.768;13.150;2022-07-26T09:14:49;3.40;;;1.30;;
23476;SDS011;11911;50.768;13.150;2022-07-26T09:17:15;4.53;;;1.13;;
23476;SDS011;11911;50.768;13.150;2022-07-26T09:19:42;2.77;;;0.90;;
23476;SDS011;11911;50.768;13.150;2022-07-26T09:22:09;2.17;;;1.20;;
23476;SDS011;11911;50.768;13.150;2022-07-26T09:24:44;3.50;;;1.10;;
23476;SDS011;11911;50.768;13.150;2022-07-26T09:27:12;5.40;;;1.57;;
23476;SDS011;11911;50.768;13.150;2022-07-26T09:32:21;6.63;;;1.20;;
23476;SDS011;11911;50.768;13.150;2022-07-26T09:35:31;2.70;;;1.27;;
23476;SDS011;11911;50.768;13.150;2022-07-26T09:37:41;1.37;;;1.00;;
23476;SDS011;11911;50.768;13.150;2022-07-26T09:40:09;5.80;;;1.50;;
23476;SDS011;11911;50.768;13.150;2022-07-26T09:42:36;2.93;;;1.20;;
23476;SDS011;11911;50.768;13.150;2022-07-26T09:45:03;4.53;;;1.40;;
23476;SDS011;11911;50.768;13.150;2022-07-26T09:47:40;1.20;;;0.80;;
23476;SDS011;11911;50.768;13.150;2022-07-26T09:50:10;2.07;;;1.20;;
23476;SDS011;11911;50.768;13.150;2022-07-26T09:52:38;4.00;;;1.70;;
23476;SDS011;11911;50.768;13.150;2022-07-26T09:55:04;4.13;;;1.20;;
23476;SDS011;11911;50.768;13.150;2022-07-26T09:57:31;5.20;;;1.10;;
23476;SDS011;11911;50.768;13.150;2022-07-26T10:00:00;4.50;;;1.20;;
23476;SDS011;11911;50.768;13.150;2022-07-26T10:02:28;5.47;;;1.23;;
23476;SDS011;11911;50.768;13.150;2022-07-26T10:04:55;2.47;;;1.33;;
23476;SDS011;11911;50.768;13.150;2022-07-26T10:07:20;4.80;;;1.23;;
23476;SDS011;11911;50.768;13.150;2022-07-26T10:09:51;2.40;;;1.13;;
23476;SDS011;11911;50.768;13.150;2022-07-26T10:12:27;6.50;;;1.30;;
23476;SDS011;11911;50.768;13.150;2022-07-26T10:14:56;2.83;;;1.23;;
23476;SDS011;11911;50.768;13.150;2022-07-26T10:19:57;2.83;;;1.10;;
23476;SDS011;11911;50.768;13.150;2022-07-26T10:27:43;1.57;;;1.10;;
23476;SDS011;11911;50.768;13.150;2022-07-26T10:35:36;2.50;;;0.93;;
23476;SDS011;11911;50.768;13.150;2022-07-26T10:38:12;3.33;;;1.00;;
23476;SDS011;11911;50.768;13.150;2022-07-26T10:43:25;3.97;;;1.00;;
23476;SDS011;11911;50.768;13.150;2022-07-26T10:46:33;1.27;;;0.70;;
23476;SDS011;11911;50.768;13.150;2022-07-26T10:48:59;1.63;;;1.00;;
23476;SDS011;11911;50.768;13.150;2022-07-26T10:51:34;2.60;;;0.90;;
23476;SDS011;11911;50.768;13.150;2022-07-26T10:54:09;2.80;;;1.17;;
23476;SDS011;11911;50.768;13.150;2022-07-26T10:56:36;2.83;;;1.00;;
23476;SDS011;11911;50.768;13.150;2022-07-26T10:59:03;1.53;;;0.90;;
23476;SDS011;11911;50.768;13.150;2022-07-26T11:01:39;2.80;;;0.80;;
23476;SDS011;11911;50.768;13.150;2022-07-26T11:04:19;3.77;;;1.60;;
23476;SDS011;11911;50.768;13.150;2022-07-26T11:06:46;2.47;;;1.00;;
23476;SDS011;11911;50.768;13.150;2022-07-26T11:09:11;2.50;;;0.90;;
23476;SDS011;11911;50.768;13.150;2022-07-26T11:11:38;2.17;;;1.10;;
23476;SDS011;11911;50.768;13.150;2022-07-26T11:14:07;3.87;;;1.37;;
23476;SDS011;11911;50.768;13.150;2022-07-26T11:16:42;4.60;;;1.17;;
23476;SDS011;11911;50.768;13.150;2022-07-26T11:19:19;5.67;;;1.20;;
23476;SDS011;11911;50.768;13.150;2022-07-26T11:21:59;6.73;;;1.20;;
23476;SDS011;11911;50.768;13.150;2022-07-26T11:24:24;1.73;;;0.97;;
23476;SDS011;11911;50.768;13.150;2022-07-26T11:26:51;1.97;;;1.00;;
23476;SDS011;11911;50.768;13.150;2022-07-26T11:29:26;4.93;;;1.00;;
23476;SDS011;11911;50.768;13.150;2022-07-26T11:31:54;5.50;;;0.80;;
23476;SDS011;11911;50.768;13.150;2022-07-26T11:34:20;2.37;;;1.10;;
23476;SDS011;11911;50.768;13.150;2022-07-26T11:36:49;1.97;;;0.83;;
23476;SDS011;11911;50.768;13.150;2022-07-26T11:39:20;2.67;;;1.10;;
23476;SDS011;11911;50.768;13.150;2022-07-26T11:41:50;2.37;;;0.90;;
23476;SDS011;11911;50.768;13.150;2022-07-26T11:44:31;2.33;;;1.10;;
23476;SDS011;11911;50.768;13.150;2022-07-26T11:46:57;3.73;;;1.00;;
23476;SDS011;11911;50.768;13.150;2022-07-26T11:49:27;2.77;;;1.00;;
23476;SDS011;11911;50.768;13.150;2022-07-26T11:51:57;2.60;;;0.97;;
23476;SDS011;11911;50.768;13.150;2022-07-26T11:54:25;3.73;;;0.93;;
23476;SDS011;11911;50.768;13.150;2022-07-26T11:56:56;1.73;;;0.90;;
23476;SDS011;11911;50.768;13.150;2022-07-26T11:59:27;2.60;;;0.80;;
23476;SDS011;11911;50.768;13.150;2022-07-26T12:01:55;2.33;;;0.90;;
23476;SDS011;11911;50.768;13.150;2022-07-26T12:04:22;5.30;;;1.10;;
23476;SDS011;11911;50.768;13.150;2022-07-26T12:06:50;5.30;;;1.10;;
23476;SDS011;11911;50.768;13.150;2022-07-26T12:09:36;7.60;;;1.00;;
23476;SDS011;11911;50.768;13.150;2022-07-26T12:12:09;4.40;;;0.83;;
23476;SDS011;11911;50.768;13.150;2022-07-26T12:15:01;5.33;;;1.03;;
23476;SDS011;11911;50.768;13.150;2022-07-26T12:17:28;3.77;;;0.93;;
23476;SDS011;11911;50.768;13.150;2022-07-26T12:19:55;8.33;;;1.20;;
23476;SDS011;11911;50.768;13.150;2022-07-26T12:22:34;2.77;;;1.03;;
23476;SDS011;11911;50.768;13.150;2022-07-26T12:24:59;2.53;;;1.13;;
23476;SDS011;11911;50.768;13.150;2022-07-26T12:27:26;1.63;;;0.90;;
23476;SDS011;11911;50.768;13.150;2022-07-26T12:32:31;3.10;;;1.27;;
23476;SDS011;11911;50.768;13.150;2022-07-26T12:35:08;1.70;;;0.83;;
23476;SDS011;11911;50.768;13.150;2022-07-26T12:42:59;3.20;;;0.70;;
23476;SDS011;11911;50.768;13.150;2022-07-26T12:45:26;2.40;;;0.70;;
23476;SDS011;11911;50.768;13.150;2022-07-26T12:47:54;4.83;;;0.80;;
23476;SDS011;11911;50.768;13.150;2022-07-26T12:50:24;1.33;;;0.80;;
23476;SDS011;11911;50.768;13.150;2022-07-26T12:52:50;4.90;;;0.80;;
23476;SDS011;11911;50.768;13.150;2022-07-26T12:55:16;1.47;;;0.97;;
23476;SDS011;11911;50.768;13.150;2022-07-26T12:57:46;2.43;;;0.73;;
23476;SDS011;11911;50.768;13.150;2022-07-26T13:00:12;1.30;;;0.70;;
23476;SDS011;11911;50.768;13.150;2022-07-26T13:02:41;5.63;;;0.90;;
23476;SDS011;11911;50.768;13.150;2022-07-26T13:05:07;1.50;;;0.80;;
23476;SDS011;11911;50.768;13.150;2022-07-26T13:07:34;2.60;;;1.03;;
23476;SDS011;11911;50.768;13.150;2022-07-26T13:09:59;2.23;;;0.93;;
23476;SDS011;11911;50.768;13.150;2022-07-26T13:12:25;3.10;;;1.00;;
23476;SDS011;11911;50.768;13.150;2022-07-26T13:14:51;3.17;;;0.90;;
23476;SDS011;11911;50.768;13.150;2022-07-26T13:17:16;3.23;;;1.00;;
23476;SDS011;11911;50.768;13.150;2022-07-26T13:19:42;1.00;;;0.70;;
23476;SDS011;11911;50.768;13.150;2022-07-26T13:22:08;2.17;;;0.90;;
23476;SDS011;11911;50.768;13.150;2022-07-26T13:24:34;1.63;;;0.90;;
23476;SDS011;11911;50.768;13.150;2022-07-26T13:27:01;3.43;;;0.90;;
23476;SDS011;11911;50.768;13.150;2022-07-26T13:29:27;4.90;;;1.10;;
23476;SDS011;11911;50.768;13.150;2022-07-26T13:31:53;5.27;;;0.90;;
23476;SDS011;11911;50.768;13.150;2022-07-26T13:34:19;26.67;;;1.63;;
23476;SDS011;11911;50.768;13.150;2022-07-26T13:36:47;6.20;;;1.00;;
23476;SDS011;11911;50.768;13.150;2022-07-26T13:39:13;2.83;;;1.00;;
23476;SDS011;11911;50.768;13.150;2022-07-26T13:41:38;3.13;;;1.10;;
23476;SDS011;11911;50.768;13.150;2022-07-26T13:44:04;2.90;;;0.90;;
23476;SDS011;11911;50.768;13.150;2022-07-26T13:46:29;2.90;;;1.00;;
23476;SDS011;11911;50.768;13.150;2022-07-26T13:48:55;2.00;;;1.00;;
23476;SDS011;11911;50.768;13.150;2022-07-26T13:51:21;2.50;;;0.93;;
23476;SDS011;11911;50.768;13.150;2022-07-26T13:53:47;1.87;;;0.90;;
23476;SDS011;11911;50.768;13.150;2022-07-26T13:56:13;3.80;;;1.40;;
23476;SDS011;11911;50.768;13.150;2022-07-26T13:58:38;3.53;;;1.40;;
23476;SDS011;11911;50.768;13.150;2022-07-26T14:01:04;5.17;;;1.10;;
23476;SDS011;11911;50.768;13.150;2022-07-26T14:03:30;8.10;;;0.97;;
23476;SDS011;11911;50.768;13.150;2022-07-26T14:05:56;8.10;;;1.20;;
23476;SDS011;11911;50.768;13.150;2022-07-26T14:08:21;7.30;;;0.80;;
23476;SDS011;11911;50.768;13.150;2022-07-26T14:10:47;4.00;;;1.20;;
23476;SDS011;11911;50.768;13.150;2022-07-26T14:13:12;5.70;;;1.00;;
23476;SDS011;11911;50.768;13.150;2022-07-26T14:15:38;3.30;;;1.03;;
23476;SDS011;11911;50.768;13.150;2022-07-26T14:18:03;2.83;;;1.17;;
23476;SDS011;11911;50.768;13.150;2022-07-26T14:20:29;2.40;;;0.93;;
23476;SDS011;11911;50.768;13.150;2022-07-26T14:22:55;3.60;;;1.23;;
23476;SDS011;11911;50.768;13.150;2022-07-26T14:25:21;2.03;;;1.00;;
23476;SDS011;11911;50.768;13.150;2022-07-26T14:27:52;5.80;;;1.10;;
23476;SDS011;11911;50.768;13.150;2022-07-26T14:30:19;1.97;;;1.20;;
23476;SDS011;11911;50.768;13.150;2022-07-26T14:32:46;2.93;;;0.90;;
23476;SDS011;11911;50.768;13.150;2022-07-26T14:35:12;2.27;;;1.20;;
23476;SDS011;11911;50.768;13.150;2022-07-26T14:37:38;1.67;;;1.00;;
23476;SDS011;11911;50.768;13.150;2022-07-26T14:40:04;1.90;;;1.20;;
23476;SDS011;11911;50.768;13.150;2022-07-26T14:42:31;3.93;;;1.10;;
23476;SDS011;11911;50.768;13.150;2022-07-26T14:44:57;4.60;;;1.07;;
23476;SDS011;11911;50.768;13.150;2022-07-26T14:47:22;1.60;;;0.90;;
23476;SDS011;11911;50.768;13.150;2022-07-26T14:49:48;1.40;;;0.80;;
23476;SDS011;11911;50.768;13.150;2022-07-26T14:52:13;5.30;;;1.07;;
23476;SDS011;11911;50.768;13.150;2022-07-26T14:54:40;5.33;;;1.50;;
23476;SDS011;11911;50.768;13.150;2022-07-26T14:57:05;7.80;;;1.37;;
23476;SDS011;11911;50.768;13.150;2022-07-26T14:59:31;13.97;;;1.40;;
23476;SDS011;11911;50.768;13.150;2022-07-26T15:01:57;5.60;;;1.00;;
23476;SDS011;11911;50.768;13.150;2022-07-26T15:04:22;1.57;;;0.93;;
23476;SDS011;11911;50.768;13.150;2022-07-26T15:06:48;2.30;;;0.90;;
23476;SDS011;11911;50.768;13.150;2022-07-26T15:09:13;3.30;;;1.20;;
23476;SDS011;11911;50.768;13.150;2022-07-26T15:11:39;1.53;;;0.80;;
23476;SDS011;11911;50.768;13.150;2022-07-26T15:14:04;4.80;;;1.03;;
23476;SDS011;11911;50.768;13.150;2022-07-26T15:16:30;1.67;;;0.70;;
23476;SDS011;11911;50.768;13.150;2022-07-26T15:18:56;1.97;;;1.00;;
23476;SDS011;11911;50.768;13.150;2022-07-26T15:21:22;3.30;;;1.00;;
23476;SDS011;11911;50.768;13.150;2022-07-26T15:23:47;4.60;;;1.00;;
23476;SDS011;11911;50.768;13.150;2022-07-26T15:26:13;3.63;;;1.10;;
23476;SDS011;11911;50.768;13.150;2022-07-26T15:28:38;10.33;;;1.60;;
23476;SDS011;11911;50.768;13.150;2022-07-26T15:31:04;2.93;;;1.30;;
23476;SDS011;11911;50.768;13.150;2022-07-26T15:33:30;1.40;;;1.00;;
23476;SDS011;11911;50.768;13.150;2022-07-26T15:35:56;2.30;;;1.40;;
23476;SDS011;11911;50.768;13.150;2022-07-26T15:38:22;6.93;;;1.20;;
23476;SDS011;11911;50.768;13.150;2022-07-26T15:40:47;6.57;;;1.00;;
23476;SDS011;11911;50.768;13.150;2022-07-26T15:43:20;3.90;;;1.47;;
23476;SDS011;11911;50.768;13.150;2022-07-26T15:45:46;2.23;;;1.30;;
23476;SDS011;11911;50.768;13.150;2022-07-26T15:48:12;3.67;;;1.50;;
23476;SDS011;11911;50.768;13.150;2022-07-26T15:50:38;4.07;;;1.40;;
23476;SDS011;11911;50.768;13.150;2022-07-26T15:53:03;3.37;;;1.63;;
23476;SDS011;11911;50.768;13.150;2022-07-26T15:55:31;2.00;;;1.10;;
23476;SDS011;11911;50.768;13.150;2022-07-26T15:57:56;1.50;;;1.23;;
23476;SDS011;11911;50.768;13.150;2022-07-26T16:00:22;5.37;;;1.23;;
23476;SDS011;11911;50.768;13.150;2022-07-26T16:02:47;1.87;;;1.30;;
23476;SDS011;11911;50.768;13.150;2022-07-26T16:05:13;9.27;;;1.53;;
23476;SDS011;11911;50.768;13.150;2022-07-26T16:07:39;11.70;;;1.50;;
23476;SDS011;11911;50.768;13.150;2022-07-26T16:10:05;7.13;;;1.53;;
23476;SDS011;11911;50.768;13.150;2022-07-26T16:12:31;7.37;;;1.20;;
23476;SDS011;11911;50.768;13.150;2022-07-26T16:14:57;3.87;;;1.20;;
23476;SDS011;11911;50.768;13.150;2022-07-26T16:17:23;5.83;;;1.40;;
23476;SDS011;11911;50.768;13.150;2022-07-26T16:19:49;12.13;;;3.33;;
23476;SDS011;11911;50.768;13.150;2022-07-26T16:35:49;8.30;;;1.63;;
23476;SDS011;11911;50.768;13.150;2022-07-26T16:38:14;4.80;;;1.97;;
23476;SDS011;11911;50.768;13.150;2022-07-26T16:40:40;4.60;;;1.70;;
23476;SDS011;11911;50.768;13.150;2022-07-26T16:43:05;3.20;;;1.90;;
23476;SDS011;11911;50.768;13.150;2022-07-26T16:45:30;9.67;;;1.67;;
23476;SDS011;11911;50.768;13.150;2022-07-26T16:47:56;2.90;;;1.70;;
23476;SDS011;11911;50.768;13.150;2022-07-26T16:50:21;7.50;;;1.90;;
23476;SDS011;11911;50.768;13.150;2022-07-26T16:52:47;13.37;;;2.20;;
23476;SDS011;11911;50.768;13.150;2022-07-26T16:55:12;9.40;;;2.53;;
23476;SDS011;11911;50.768;13.150;2022-07-26T16:57:39;4.63;;;1.83;;
23476;SDS011;11911;50.768;13.150;2022-07-26T17:00:05;5.67;;;1.90;;
23476;SDS011;11911;50.768;13.150;2022-07-26T17:02:34;3.47;;;2.00;;
23476;SDS011;11911;50.768;13.150;2022-07-26T17:05:00;3.20;;;1.97;;
23476;SDS011;11911;50.768;13.150;2022-07-26T17:07:26;3.83;;;1.70;;
23476;SDS011;11911;50.768;13.150;2022-07-26T17:09:52;6.73;;;2.10;;
23476;SDS011;11911;50.768;13.150;2022-07-26T17:12:19;4.37;;;1.80;;
23476;SDS011;11911;50.768;13.150;2022-07-26T17:14:45;5.53;;;1.87;;
23476;SDS011;11911;50.768;13.150;2022-07-26T17:17:10;10.53;;;1.93;;
23476;SDS011;11911;50.768;13.150;2022-07-26T17:19:36;5.90;;;1.90;;
23476;SDS011;11911;50.768;13.150;2022-07-26T17:22:01;4.50;;;1.70;;
23476;SDS011;11911;50.768;13.150;2022-07-26T17:24:27;6.73;;;2.10;;
23476;SDS011;11911;50.768;13.150;2022-07-26T17:26:53;4.70;;;2.00;;
23476;SDS011;11911;50.768;13.150;2022-07-26T17:29:19;5.93;;;2.23;;
23476;SDS011;11911;50.768;13.150;2022-07-26T17:31:44;2.93;;;1.80;;
23476;SDS011;11911;50.768;13.150;2022-07-26T17:34:10;24.73;;;2.30;;
23476;SDS011;11911;50.768;13.150;2022-07-26T17:36:35;11.67;;;2.10;;
23476;SDS011;11911;50.768;13.150;2022-07-26T17:39:02;10.40;;;2.60;;
23476;SDS011;11911;50.768;13.150;2022-07-26T17:41:28;7.50;;;1.90;;
23476;SDS011;11911;50.768;13.150;2022-07-26T17:43:53;4.40;;;2.00;;
23476;SDS011;11911;50.768;13.150;2022-07-26T17:46:19;21.47;;;2.60;;
23476;SDS011;11911;50.768;13.150;2022-07-26T17:48:45;3.27;;;1.93;;
23476;SDS011;11911;50.768;13.150;2022-07-26T17:51:14;6.60;;;1.83;;
23476;SDS011;11911;50.768;13.150;2022-07-26T17:53:41;3.23;;;1.90;;
23476;SDS011;11911;50.768;13.150;2022-07-26T17:56:07;3.63;;;1.93;;
23476;SDS011;11911;50.768;13.150;2022-07-26T17:58:35;10.10;;;2.53;;
23476;SDS011;11911;50.768;13.150;2022-07-26T18:01:04;9.03;;;2.10;;
23476;SDS011;11911;50.768;13.150;2022-07-26T18:03:30;7.40;;;2.00;;
23476;SDS011;11911;50.768;13.150;2022-07-26T18:05:55;4.13;;;2.00;;
23476;SDS011;11911;50.768;13.150;2022-07-26T18:08:21;3.30;;;2.00;;
23476;SDS011;11911;50.768;13.150;2022-07-26T18:10:57;8.07;;;2.63;;
23476;SDS011;11911;50.768;13.150;2022-07-26T18:13:23;6.60;;;2.47;;
23476;SDS011;11911;50.768;13.150;2022-07-26T18:15:50;12.03;;;2.83;;
23476;SDS011;11911;50.768;13.150;2022-07-26T18:18:16;8.87;;;2.00;;
23476;SDS011;11911;50.768;13.150;2022-07-26T18:20:42;5.50;;;1.93;;
23476;SDS011;11911;50.768;13.150;2022-07-26T18:23:07;3.53;;;1.80;;
23476;SDS011;11911;50.768;13.150;2022-07-26T18:25:33;7.43;;;2.50;;
23476;SDS011;11911;50.768;13.150;2022-07-26T18:27:59;6.77;;;2.00;;
23476;SDS011;11911;50.768;13.150;2022-07-26T18:30:24;3.87;;;2.17;;
23476;SDS011;11911;50.768;13.150;2022-07-26T18:32:52;10.00;;;2.20;;
23476;SDS011;11911;50.768;13.150;2022-07-26T18:35:18;5.27;;;2.40;;
23476;SDS011;11911;50.768;13.150;2022-07-26T18:37:43;2.90;;;2.10;;
23476;SDS011;11911;50.768;13.150;2022-07-26T18:40:10;8.17;;;2.10;;
23476;SDS011;11911;50.768;13.150;2022-07-26T18:42:36;5.00;;;2.17;;
23476;SDS011;11911;50.768;13.150;2022-07-26T18:45:01;8.83;;;2.47;;
23476;SDS011;11911;50.768;13.150;2022-07-26T18:47:27;11.43;;;2.50;;
23476;SDS011;11911;50.768;13.150;2022-07-26T18:49:53;8.33;;;2.70;;
23476;SDS011;11911;50.768;13.150;2022-07-26T18:52:18;5.83;;;2.00;;
23476;SDS011;11911;50.768;13.150;2022-07-26T18:54:44;6.50;;;2.77;;
23476;SDS011;11911;50.768;13.150;2022-07-26T18:57:09;5.60;;;2.50;;
23476;SDS011;11911;50.768;13.150;2022-07-26T18:59:35;4.47;;;2.17;;
23476;SDS011;11911;50.768;13.150;2022-07-26T19:02:00;5.80;;;2.10;;
23476;SDS011;11911;50.768;13.150;2022-07-26T19:04:26;12.73;;;3.40;;
23476;SDS011;11911;50.768;13.150;2022-07-26T19:06:52;10.70;;;3.47;;
23476;SDS011;11911;50.768;13.150;2022-07-26T19:09:17;2.90;;;2.23;;
23476;SDS011;11911;50.768;13.150;2022-07-26T19:11:43;4.53;;;2.50;;
23476;SDS011;11911;50.768;13.150;2022-07-26T19:14:11;4.00;;;2.20;;
23476;SDS011;11911;50.768;13.150;2022-07-26T19:16:37;4.07;;;1.93;;
23476;SDS011;11911;50.768;13.150;2022-07-26T19:19:03;4.33;;;2.10;;
23476;SDS011;11911;50.768;13.150;2022-07-26T19:21:28;4.80;;;2.50;;
23476;SDS011;11911;50.768;13.150;2022-07-26T19:23:54;5.07;;;2.43;;
23476;SDS011;11911;50.768;13.150;2022-07-26T19:26:19;5.20;;;1.90;;
23476;SDS011;11911;50.768;13.150;2022-07-26T19:28:47;8.03;;;2.03;;
23476;SDS011;11911;50.768;13.150;2022-07-26T19:31:13;4.17;;;1.90;;